Time;durP1;ratioP1;P1;durP2;ratioP2;P2;SDS_P1;SDS_P2;PMS_P1;PMS_P2;Temp;Humidity;BMP_temperature;BMP_pressure;BME280_temperature;BME280_humidity;BME280_pressure;Samples;Min_cycle;Max_cycle;Signal;HPM_P1;HPM_P2
2021/12/14 00:00:55;;;;;;;12.90;11.40;;;8.70;99.90;;;;;;5105464;27;20046;-71
2021/12/14 00:03:24;;;;;;;13.30;11.50;;;8.70;99.90;;;;;;5107130;28;20505;-72
2021/12/14 00:05:51;;;;;;;14.35;11.75;;;8.70;99.90;;;;;;5112772;27;21001;-72
2021/12/14 00:08:17;;;;;;;14.80;12.75;;;8.70;99.90;;;;;;5121272;27;20031;-72
2021/12/14 00:11:25;;;;;;;13.80;12.00;;;8.70;99.90;;;;;;5124825;27;20047;-72
2021/12/14 00:16:07;;;;;;;14.52;12.15;;;8.70;99.90;;;;;;5117145;27;20059;-72
2021/12/14 00:18:34;;;;;;;14.48;12.20;;;8.70;99.90;;;;;;5117264;27;20486;-72
2021/12/14 00:21:05;;;;;;;13.82;12.38;;;8.70;99.90;;;;;;5124769;27;20125;-72
2021/12/14 00:26:19;;;;;;;15.15;11.77;;;8.70;99.90;;;;;;5124003;27;20043;-71
2021/12/14 00:28:45;;;;;;;15.10;13.00;;;8.70;99.90;;;;;;5124214;27;20084;-72
2021/12/14 00:31:16;;;;;;;15.23;13.52;;;8.70;99.90;;;;;;5125257;28;20043;-72
2021/12/14 00:33:45;;;;;;;14.55;13.05;;;8.70;99.90;;;;;;5123812;27;20040;-72
2021/12/14 00:36:13;;;;;;;15.27;13.60;;;8.70;99.90;;;;;;5113493;27;20786;-72
2021/12/14 00:38:41;;;;;;;15.90;14.20;;;8.70;99.90;;;;;;5125253;27;20043;-72
2021/12/14 00:41:18;;;;;;;16.20;14.02;;;8.70;99.90;;;;;;5115821;27;20039;-72
2021/12/14 00:43:44;;;;;;;;;;;8.60;99.90;;;;;;5109794;28;20059;-72
2021/12/14 00:46:13;;;;;;;16.20;14.38;;;8.60;99.90;;;;;;5156669;27;19919;-72
2021/12/14 00:48:40;;;;;;;18.55;14.95;;;8.60;99.90;;;;;;5116069;27;20104;-72
2021/12/14 00:51:06;;;;;;;19.40;14.45;;;8.60;99.90;;;;;;5110267;27;20047;-72
2021/12/14 00:53:33;;;;;;;19.35;14.75;;;8.60;99.90;;;;;;5110971;28;20058;-71
2021/12/14 00:56:02;;;;;;;17.80;15.63;;;8.60;99.90;;;;;;5151451;27;20677;-72
2021/12/14 00:58:29;;;;;;;16.95;14.93;;;8.60;99.90;;;;;;5127046;27;20095;-72
2021/12/14 01:01:06;;;;;;;17.85;15.68;;;8.60;99.90;;;;;;5123407;27;20079;-72
2021/12/14 01:03:34;;;;;;;;;;;8.60;99.90;;;;;;5122332;27;20050;-72
2021/12/14 01:06:03;;;;;;;18.90;15.30;;;8.60;99.90;;;;;;5110709;27;19959;-72
2021/12/14 01:08:34;;;;;;;19.17;15.75;;;8.60;99.90;;;;;;5144224;27;20576;-72
2021/12/14 01:11:23;;;;;;;18.17;16.10;;;8.60;99.90;;;;;;5120999;27;20042;-72
2021/12/14 01:14:00;;;;;;;17.73;14.75;;;8.60;99.90;;;;;;5117687;27;20050;-71
2021/12/14 01:16:47;;;;;;;19.95;15.60;;;8.60;99.90;;;;;;5121579;27;20046;-71
2021/12/14 01:19:16;;;;;;;17.45;15.55;;;8.50;99.90;;;;;;5116947;27;20043;-71
2021/12/14 01:27:11;;;;;;;16.63;14.85;;;8.60;99.90;;;;;;5122377;27;20047;-72
2021/12/14 01:29:38;;;;;;;18.17;15.23;;;8.60;99.90;;;;;;5120434;27;20039;-72
2021/12/14 01:32:05;;;;;;;19.95;15.95;;;8.60;99.90;;;;;;5111949;27;20047;-71
2021/12/14 01:34:32;;;;;;;17.33;15.05;;;8.60;99.90;;;;;;5116058;27;20052;-72
2021/12/14 01:37:06;;;;;;;19.20;16.20;;;8.60;99.90;;;;;;5109909;28;20103;-72
2021/12/14 01:42:08;;;;;;;17.70;15.85;;;8.60;99.90;;;;;;5114654;27;20062;-72
2021/12/14 01:44:40;;;;;;;17.33;15.52;;;8.60;99.90;;;;;;5142991;27;20044;-72
2021/12/14 01:47:14;;;;;;;17.85;15.88;;;8.50;99.90;;;;;;5120913;27;20074;-72
2021/12/14 01:49:39;;;;;;;17.50;15.60;;;8.50;99.90;;;;;;5116201;27;20070;-71
2021/12/14 01:52:11;;;;;;;19.30;15.68;;;8.60;99.90;;;;;;5108271;27;20043;-71
2021/12/14 01:54:42;;;;;;;17.52;15.10;;;8.50;99.90;;;;;;5123975;27;20114;-72
2021/12/14 01:57:10;;;;;;;17.10;14.95;;;8.50;99.90;;;;;;5160607;27;20165;-72
2021/12/14 01:59:38;;;;;;;17.77;15.52;;;8.50;99.90;;;;;;5122719;27;20382;-72
2021/12/14 02:02:20;;;;;;;17.70;15.43;;;8.50;99.90;;;;;;5111012;27;20055;-72
2021/12/14 02:04:53;;;;;;;17.70;15.75;;;8.60;99.90;;;;;;5123025;27;20035;-72
2021/12/14 02:07:19;;;;;;;17.92;15.98;;;8.50;99.90;;;;;;5126926;27;20494;-72
2021/12/14 02:09:51;;;;;;;18.30;15.98;;;8.50;99.90;;;;;;5120633;27;20569;-71
2021/12/14 02:12:25;;;;;;;18.33;16.23;;;8.50;99.90;;;;;;5111103;27;20066;-72
2021/12/14 02:14:52;;;;;;;18.35;16.23;;;8.50;99.90;;;;;;5116129;27;20115;-71
2021/12/14 02:17:21;;;;;;;19.17;16.38;;;8.50;99.90;;;;;;5110104;27;20364;-72
2021/12/14 02:19:48;;;;;;;20.50;17.27;;;8.50;99.90;;;;;;5114731;27;20160;-71
2021/12/14 02:22:14;;;;;;;20.27;17.67;;;8.50;99.90;;;;;;5111570;27;20494;-72
2021/12/14 02:24:49;;;;;;;21.75;18.15;;;8.50;99.90;;;;;;5121736;27;21056;-72
2021/12/14 02:27:15;;;;;;;21.08;17.85;;;8.50;99.90;;;;;;5121307;27;20686;-71
2021/12/14 02:29:44;;;;;;;21.60;18.38;;;8.50;99.90;;;;;;5126037;27;20070;-72
2021/12/14 02:32:14;;;;;;;24.33;18.60;;;8.50;99.90;;;;;;5113924;27;20048;-72
2021/12/14 02:34:44;;;;;;;22.70;19.05;;;8.50;99.90;;;;;;5126870;27;20035;-72
2021/12/14 02:37:11;;;;;;;22.08;18.85;;;8.50;99.90;;;;;;5111044;27;20035;-72
2021/12/14 02:42:09;;;;;;;22.23;19.08;;;8.50;99.90;;;;;;5127936;27;20081;-72
2021/12/14 02:44:37;;;;;;;23.80;19.92;;;8.50;99.90;;;;;;5112675;27;20541;-71
2021/12/14 02:47:10;;;;;;;22.75;19.30;;;8.50;99.90;;;;;;5125530;27;20080;-71
2021/12/14 02:49:39;;;;;;;24.10;19.95;;;8.50;99.90;;;;;;5126709;27;20062;-72
2021/12/14 02:52:31;;;;;;;26.15;20.00;;;8.50;99.90;;;;;;5124055;27;20072;-71
2021/12/14 02:55:20;;;;;;;25.48;20.00;;;8.50;99.90;;;;;;5114727;27;20081;-72
2021/12/14 02:57:49;;;;;;;23.95;20.55;;;8.50;99.90;;;;;;5123405;27;20096;-72
2021/12/14 03:00:39;;;;;;;25.08;20.85;;;8.50;99.90;;;;;;5121870;27;20047;-71
2021/12/14 03:03:06;;;;;;;26.88;20.77;;;8.50;99.90;;;;;;5108465;28;20032;-72
2021/12/14 03:05:35;;;;;;;26.25;21.42;;;8.50;99.90;;;;;;5151669;27;20043;-71
2021/12/14 03:08:16;;;;;;;28.70;21.73;;;8.50;99.90;;;;;;5119399;27;20067;-71
2021/12/14 03:11:09;;;;;;;26.55;21.38;;;8.50;99.90;;;;;;5121527;27;20482;-71
2021/12/14 03:13:36;;;;;;;26.92;21.65;;;8.50;99.90;;;;;;5125693;27;20054;-71
2021/12/14 03:16:07;;;;;;;27.20;22.40;;;8.50;99.90;;;;;;5127861;27;20424;-72
2021/12/14 03:18:37;;;;;;;27.73;22.02;;;8.50;99.90;;;;;;5119275;27;20118;-71
2021/12/14 03:21:12;;;;;;;30.80;23.80;;;8.50;99.90;;;;;;5108207;27;20046;-71
2021/12/14 03:23:47;;;;;;;29.70;22.98;;;8.50;99.90;;;;;;5121615;27;20506;-71
2021/12/14 03:26:16;;;;;;;27.27;22.42;;;8.50;99.90;;;;;;5122553;27;20031;-72
2021/12/14 03:28:46;;;;;;;28.58;23.90;;;8.50;99.90;;;;;;5123399;27;20055;-72
2021/12/14 03:31:24;;;;;;;29.25;23.55;;;8.50;99.90;;;;;;5109906;27;20051;-71
2021/12/14 03:34:16;;;;;;;28.27;23.83;;;8.50;99.90;;;;;;5109815;27;20047;-71
2021/12/14 03:36:58;;;;;;;30.75;24.67;;;8.50;99.90;;;;;;5104440;28;20384;-71
2021/12/14 03:39:32;;;;;;;28.17;24.02;;;8.50;99.90;;;;;;5122246;27;20118;-71
2021/12/14 03:42:05;;;;;;;29.95;24.35;;;8.50;99.90;;;;;;5126231;27;20389;-71
2021/12/14 03:44:42;;;;;;;31.23;25.25;;;8.50;99.90;;;;;;5120812;27;20100;-71
2021/12/14 03:47:15;;;;;;;29.30;26.10;;;8.50;99.90;;;;;;5124792;27;20163;-71
2021/12/14 03:49:48;;;;;;;32.80;25.02;;;8.50;99.90;;;;;;5123134;27;20061;-72
2021/12/14 03:52:18;;;;;;;31.55;26.33;;;8.50;99.90;;;;;;5156180;27;20118;-71
2021/12/14 03:54:44;;;;;;;29.92;25.63;;;8.50;99.90;;;;;;5107714;27;20122;-71
2021/12/14 03:57:10;;;;;;;29.98;26.05;;;8.50;99.90;;;;;;5106906;28;20126;-71
2021/12/14 03:59:37;;;;;;;31.02;26.73;;;8.50;99.90;;;;;;5122354;27;20047;-71
2021/12/14 04:02:06;;;;;;;33.72;26.98;;;8.50;99.90;;;;;;5122555;27;20118;-72
2021/12/14 04:04:36;;;;;;;32.95;26.58;;;8.50;99.90;;;;;;5122860;27;20118;-71
2021/12/14 04:07:05;;;;;;;33.30;27.17;;;8.50;99.90;;;;;;5122692;27;20057;-71
2021/12/14 04:09:34;;;;;;;31.60;26.65;;;8.50;99.90;;;;;;5107504;27;20032;-71
2021/12/14 04:12:02;;;;;;;35.67;28.58;;;8.50;99.90;;;;;;5114338;27;20060;-72
2021/12/14 04:14:29;;;;;;;;;;;8.50;99.90;;;;;;5119693;27;20537;-71
2021/12/14 04:16:57;;;;;;;34.90;28.60;;;8.40;99.90;;;;;;5106705;27;20006;-71
2021/12/14 04:19:27;;;;;;;33.15;27.25;;;8.40;99.90;;;;;;5116521;27;20035;-71
2021/12/14 04:21:58;;;;;;;34.40;27.92;;;8.40;99.90;;;;;;5121828;27;20075;-72
2021/12/14 04:24:28;;;;;;;35.28;28.92;;;8.40;99.90;;;;;;5111991;27;20077;-72
2021/12/14 04:26:55;;;;;;;34.90;28.80;;;8.40;99.90;;;;;;5156568;27;20084;-72
2021/12/14 04:29:21;;;;;;;;;;;8.40;99.90;;;;;;5124153;27;20039;-72
2021/12/14 04:31:48;;;;;;;34.97;28.80;;;8.40;99.90;;;;;;5122249;27;19919;-72
2021/12/14 04:34:17;;;;;;;36.97;29.97;;;8.40;99.90;;;;;;5147422;27;20039;-72
2021/12/14 04:36:51;;;;;;;34.15;29.55;;;8.40;99.90;;;;;;5124944;28;20039;-72
2021/12/14 04:53:21;;;;;;;38.13;31.15;;;8.40;99.90;;;;;;5122897;27;20054;-72
2021/12/14 04:55:48;;;;;;;37.78;30.70;;;8.40;99.90;;;;;;5115609;28;20043;-71
2021/12/14 04:58:14;;;;;;;39.53;31.67;;;8.40;99.90;;;;;;5116329;27;20641;-72
2021/12/14 05:00:46;;;;;;;38.72;31.83;;;8.40;99.90;;;;;;5106707;28;20040;-71
2021/12/14 05:03:23;;;;;;;39.30;31.90;;;8.40;99.90;;;;;;5112134;28;20070;-72
2021/12/14 05:05:57;;;;;;;39.35;31.73;;;8.40;99.90;;;;;;5125327;27;20494;-72
2021/12/14 05:11:24;;;;;;;40.40;33.70;;;8.40;99.90;;;;;;5126208;27;20055;-72
2021/12/14 05:13:54;;;;;;;36.85;32.00;;;8.40;99.90;;;;;;5118315;27;20050;-72
2021/12/14 05:16:28;;;;;;;40.22;32.47;;;8.30;99.90;;;;;;5123539;27;20173;-72
2021/12/14 05:19:02;;;;;;;39.67;33.13;;;8.30;99.90;;;;;;5118254;28;20078;-72
2021/12/14 05:21:44;;;;;;;45.05;34.03;;;8.30;99.90;;;;;;5106378;28;20040;-72
2021/12/14 05:24:12;;;;;;;37.60;32.20;;;8.30;99.90;;;;;;5107037;28;20039;-72
2021/12/14 05:26:38;;;;;;;39.72;33.17;;;8.30;99.90;;;;;;5112055;28;20042;-72
2021/12/14 05:29:07;;;;;;;39.38;33.05;;;8.30;99.90;;;;;;5123728;27;20039;-71
2021/12/14 05:31:33;;;;;;;41.25;33.72;;;8.20;99.90;;;;;;5124341;27;20057;-71
2021/12/14 05:33:59;;;;;;;43.50;34.03;;;8.30;99.90;;;;;;5119937;27;20146;-72
2021/12/14 05:36:25;;;;;;;45.65;34.90;;;8.20;99.90;;;;;;5129443;27;20046;-72
2021/12/14 05:39:18;;;;;;;42.80;34.20;;;8.20;99.90;;;;;;5129251;27;20043;-72
2021/12/14 05:44:29;;;;;;;43.40;35.63;;;8.20;99.90;;;;;;5110211;27;20565;-71
2021/12/14 05:46:56;;;;;;;44.08;33.58;;;8.30;99.90;;;;;;5124345;27;20130;-72
2021/12/14 05:49:25;;;;;;;45.03;34.45;;;8.20;99.90;;;;;;5128922;27;20043;-72
2021/12/14 05:51:58;;;;;;;43.85;35.28;;;8.30;99.90;;;;;;5127166;27;20039;-72
2021/12/14 05:54:30;;;;;;;45.78;35.83;;;8.20;99.90;;;;;;5109304;27;20926;-71
2021/12/14 05:56:59;;;;;;;41.50;35.63;;;8.30;99.90;;;;;;5149226;27;20047;-72
2021/12/14 05:59:29;;;;;;;43.85;36.35;;;8.30;99.90;;;;;;5124453;27;20039;-72
2021/12/14 06:01:56;;;;;;;44.28;35.88;;;8.30;99.90;;;;;;5127493;27;20071;-72
2021/12/14 06:04:26;;;;;;;43.63;35.65;;;8.30;99.90;;;;;;5123988;27;20036;-71
2021/12/14 06:06:55;;;;;;;44.35;36.22;;;8.30;99.90;;;;;;5142605;27;20055;-71
2021/12/14 06:09:25;;;;;;;46.85;36.40;;;8.30;99.90;;;;;;5121137;27;20046;-71
2021/12/14 06:12:17;;;;;;;43.33;36.35;;;8.30;99.90;;;;;;5128456;27;20060;-71
2021/12/14 06:14:51;;;;;;;44.22;36.72;;;8.30;99.90;;;;;;5125731;27;20431;-72
2021/12/14 06:17:22;;;;;;;46.28;37.97;;;8.30;99.90;;;;;;5116006;27;20083;-71
2021/12/14 06:19:54;;;;;;;45.92;36.92;;;8.30;99.90;;;;;;5110741;27;20454;-72
2021/12/14 06:22:21;;;;;;;47.85;39.08;;;8.30;99.90;;;;;;5111647;27;20114;-71
2021/12/14 06:25:01;;;;;;;49.38;39.92;;;8.30;99.90;;;;;;5124413;27;20112;-72
2021/12/14 06:27:30;;;;;;;51.83;41.75;;;8.30;99.90;;;;;;5126948;27;20516;-72
2021/12/14 06:30:00;;;;;;;55.63;41.30;;;8.30;99.90;;;;;;5112800;27;20042;-72
2021/12/14 06:32:32;;;;;;;54.63;41.75;;;8.30;99.90;;;;;;5124645;27;20074;-72
2021/12/14 06:35:23;;;;;;;55.20;41.63;;;8.30;99.90;;;;;;5115718;27;20073;-72
2021/12/14 06:38:27;;;;;;;55.42;43.22;;;8.30;99.90;;;;;;5114257;27;20307;-72
2021/12/14 06:41:05;;;;;;;54.30;42.25;;;8.30;99.90;;;;;;5123333;27;20057;-72
2021/12/14 06:43:42;;;;;;;58.80;43.50;;;8.30;99.90;;;;;;5116996;27;20039;-72
2021/12/14 06:46:23;;;;;;;56.15;43.47;;;8.30;99.90;;;;;;5118587;27;20043;-72
2021/12/14 06:49:01;;;;;;;58.65;44.17;;;8.30;99.90;;;;;;5112097;27;20064;-72
2021/12/14 06:51:31;;;;;;;57.92;45.00;;;8.30;99.90;;;;;;5141382;27;20051;-72
2021/12/14 06:54:05;;;;;;;61.58;44.63;;;8.30;99.90;;;;;;5110071;27;20039;-71
2021/12/14 06:56:32;;;;;;;60.42;44.55;;;8.30;99.90;;;;;;5127830;27;20062;-72
2021/12/14 06:58:59;;;;;;;;;;;8.30;99.90;;;;;;5112808;27;20036;-72
2021/12/14 07:01:35;;;;;;;61.90;46.80;;;8.30;99.90;;;;;;5124920;27;20351;-74
2021/12/14 07:04:03;;;;;;;57.55;43.97;;;8.30;99.90;;;;;;5125604;27;20424;-72
2021/12/14 07:06:30;;;;;;;67.22;46.85;;;8.30;99.90;;;;;;5119803;27;20697;-71
2021/12/14 07:09:05;;;;;;;64.68;46.88;;;8.30;99.90;;;;;;5112007;27;20096;-71
2021/12/14 07:11:31;;;;;;;63.75;47.80;;;8.30;99.90;;;;;;5149639;27;20054;-71
2021/12/14 07:13:57;;;;;;;66.38;48.75;;;8.30;99.90;;;;;;5115615;27;20039;-71
2021/12/14 07:16:30;;;;;;;64.32;47.72;;;8.30;99.90;;;;;;5140750;27;20050;-71
2021/12/14 07:19:00;;;;;;;65.78;46.15;;;8.30;99.90;;;;;;5149851;27;20476;-71
2021/12/14 07:21:47;;;;;;;61.15;45.58;;;8.30;99.90;;;;;;5126455;27;20058;-71
2021/12/14 07:24:22;;;;;;;;;;;8.30;99.90;;;;;;5124929;27;20050;-71
2021/12/14 07:27:11;;;;;;;64.30;46.63;;;8.30;99.90;;;;;;5138334;27;19923;-72
2021/12/14 07:29:37;;;;;;;67.82;48.33;;;8.30;99.90;;;;;;5151626;27;20546;-72
2021/12/14 07:32:03;;;;;;;69.55;48.38;;;8.30;99.90;;;;;;5110678;27;20039;-72
2021/12/14 07:34:29;;;;;;;65.60;47.58;;;8.30;99.90;;;;;;5113633;27;20060;-72
2021/12/14 07:36:55;;;;;;;68.90;47.30;;;8.30;99.90;;;;;;5105770;27;20035;-71
2021/12/14 07:39:22;;;;;;;63.45;45.38;;;8.30;99.90;;;;;;5124071;27;20035;-72
2021/12/14 07:41:51;;;;;;;63.33;47.92;;;8.30;99.90;;;;;;5126039;27;20058;-72
2021/12/14 07:44:19;;;;;;;68.35;48.83;;;8.30;99.90;;;;;;5112486;27;20054;-72
2021/12/14 07:47:14;;;;;;;65.97;47.13;;;8.30;99.90;;;;;;5113012;27;20043;-72
2021/12/14 07:49:46;;;;;;;65.90;48.05;;;8.30;99.90;;;;;;5125492;27;20062;-72
2021/12/14 07:52:18;;;;;;;71.22;49.97;;;8.30;99.90;;;;;;5115434;27;20671;-72
2021/12/14 07:54:55;;;;;;;68.32;48.53;;;8.30;99.90;;;;;;5109936;27;20105;-72
2021/12/14 07:57:24;;;;;;;;;;;8.30;99.90;;;;;;5116232;27;20043;-72
2021/12/14 07:59:56;;;;;;;68.43;49.08;;;8.30;99.90;;;;;;5108873;27;19920;-72
2021/12/14 08:02:37;;;;;;;73.18;50.22;;;8.30;99.90;;;;;;5115879;27;20039;-72
2021/12/14 08:05:17;;;;;;;68.85;49.40;;;8.30;99.90;;;;;;5108318;27;20048;-72
2021/12/14 08:08:03;;;;;;;71.90;51.38;;;8.30;99.90;;;;;;5117060;27;20053;-72
2021/12/14 08:10:39;;;;;;;69.53;49.72;;;8.30;99.90;;;;;;5114465;27;20508;-71
2021/12/14 08:13:21;;;;;;;67.68;49.50;;;8.30;99.90;;;;;;5111495;27;20065;-72
2021/12/14 08:16:04;;;;;;;69.53;50.75;;;8.40;99.90;;;;;;5105228;28;20416;-72
2021/12/14 08:18:33;;;;;;;72.05;50.13;;;8.40;99.90;;;;;;5115261;27;20123;-72
2021/12/14 08:21:17;;;;;;;67.70;48.40;;;8.40;99.90;;;;;;5112690;27;20490;-72
2021/12/14 08:23:52;;;;;;;68.35;50.40;;;8.40;99.90;;;;;;5114156;27;20454;-72
2021/12/14 08:26:27;;;;;;;70.25;51.58;;;8.40;99.90;;;;;;5117859;27;20054;-72
2021/12/14 08:29:00;;;;;;;67.15;50.05;;;8.40;99.90;;;;;;5120036;27;20042;-72
2021/12/14 08:31:41;;;;;;;68.47;49.42;;;8.40;99.90;;;;;;5118904;27;20478;-72
2021/12/14 08:34:10;;;;;;;68.13;50.92;;;8.40;99.90;;;;;;5111103;28;20043;-72
2021/12/14 08:36:53;;;;;;;65.45;49.17;;;8.40;99.90;;;;;;5156136;27;20047;-72
2021/12/14 08:39:33;;;;;;;77.32;52.63;;;8.40;99.90;;;;;;5116718;27;20043;-72
2021/12/14 08:42:36;;;;;;;73.00;52.85;;;8.40;99.90;;;;;;5115341;28;20384;-72
2021/12/14 08:45:25;;;;;;;75.38;52.60;;;8.50;99.90;;;;;;5100332;28;20051;-72
2021/12/14 08:48:01;;;;;;;75.55;52.97;;;8.50;99.90;;;;;;5125513;27;20047;-72
2021/12/14 08:50:28;;;;;;;77.50;53.37;;;8.50;99.90;;;;;;5109893;27;20397;-71
2021/12/14 08:52:54;;;;;;;75.63;53.90;;;8.50;99.90;;;;;;5107429;28;20851;-72
2021/12/14 08:55:21;;;;;;;79.38;55.00;;;8.50;99.90;;;;;;5123694;27;20457;-72
2021/12/14 08:57:47;;;;;;;80.65;53.28;;;8.50;99.90;;;;;;5140937;27;20587;-71
2021/12/14 09:00:27;;;;;;;83.28;54.10;;;8.50;99.90;;;;;;5125982;27;20043;-71
2021/12/14 09:02:59;;;;;;;80.97;54.00;;;8.50;99.90;;;;;;5107224;28;20043;-71
2021/12/14 09:05:38;;;;;;;76.93;52.35;;;8.50;99.90;;;;;;5108233;28;20044;-72
2021/12/14 09:08:04;;;;;;;77.00;53.33;;;8.50;99.90;;;;;;5129132;27;20046;-72
2021/12/14 09:10:34;;;;;;;76.95;53.08;;;8.50;99.90;;;;;;5121738;27;20051;-72
2021/12/14 09:13:06;;;;;;;76.45;52.47;;;8.50;99.90;;;;;;5125189;27;20132;-72
2021/12/14 09:15:41;;;;;;;79.45;53.53;;;8.50;99.90;;;;;;5125453;27;20035;-72
2021/12/14 09:18:08;;;;;;;78.43;52.90;;;8.60;99.90;;;;;;5146646;27;20047;-73
2021/12/14 09:20:39;;;;;;;77.10;53.65;;;8.60;99.90;;;;;;5130342;27;20064;-73
2021/12/14 09:23:22;;;;;;;78.50;53.72;;;8.60;99.90;;;;;;5132361;27;20494;-73
2021/12/14 09:25:49;;;;;;;75.30;53.28;;;8.60;99.90;;;;;;5127500;27;20100;-73
2021/12/14 09:28:17;;;;;;;74.13;53.10;;;8.60;99.90;;;;;;5111932;27;20509;-73
2021/12/14 09:30:49;;;;;;;71.68;51.08;;;8.60;99.90;;;;;;5126156;27;20077;-72
2021/12/14 09:33:16;;;;;;;72.57;52.50;;;8.70;99.90;;;;;;5133363;27;20046;-71
2021/12/14 09:35:43;;;;;;;72.15;51.83;;;8.70;99.90;;;;;;5117408;27;20440;-69
2021/12/14 09:38:11;;;;;;;73.30;50.95;;;8.60;99.90;;;;;;5111166;27;20376;-70
2021/12/14 09:40:48;;;;;;;69.90;50.58;;;8.70;99.90;;;;;;5123817;27;20050;-71
2021/12/14 09:43:14;;;;;;;74.53;50.95;;;8.70;99.90;;;;;;5111521;27;20077;-70
2021/12/14 09:45:45;;;;;;;67.47;50.03;;;8.70;99.90;;;;;;5122409;27;20043;-70
2021/12/14 09:48:25;;;;;;;71.85;50.92;;;8.70;99.90;;;;;;5125887;27;20086;-70
2021/12/14 09:50:51;;;;;;;68.65;50.72;;;8.70;99.90;;;;;;5125355;27;20054;-70
2021/12/14 09:53:21;;;;;;;69.82;49.60;;;8.70;99.90;;;;;;5126798;27;20039;-70
2021/12/14 09:55:48;;;;;;;65.68;48.90;;;8.70;99.90;;;;;;5137225;27;20050;-71
2021/12/14 09:58:20;;;;;;;65.95;48.55;;;8.70;99.90;;;;;;5129494;27;20631;-71
2021/12/14 10:00:54;;;;;;;67.13;47.38;;;8.70;99.90;;;;;;5126936;27;21496;-70
2021/12/14 10:03:20;;;;;;;69.35;50.50;;;8.70;99.90;;;;;;5126772;27;20119;-73
2021/12/14 10:05:59;;;;;;;66.03;49.67;;;8.80;99.90;;;;;;5127708;27;20074;-69
2021/12/14 10:08:31;;;;;;;68.90;49.38;;;8.80;99.90;;;;;;5128478;27;20032;-68
2021/12/14 10:11:23;;;;;;;68.93;48.30;;;8.80;99.90;;;;;;5125356;27;20031;-69
2021/12/14 10:13:50;;;;;;;63.28;47.08;;;8.80;99.90;;;;;;5142789;27;20049;-68
2021/12/14 10:16:16;;;;;;;68.35;49.28;;;8.80;99.90;;;;;;5134965;27;20496;-68
2021/12/14 10:18:45;;;;;;;64.70;48.00;;;8.80;99.90;;;;;;5132614;27;20121;-68
2021/12/14 10:21:23;;;;;;;66.72;48.38;;;8.80;99.90;;;;;;5141870;27;20043;-69
2021/12/14 10:23:50;;;;;;;64.38;48.75;;;8.80;99.90;;;;;;5142304;27;20058;-68
2021/12/14 10:26:17;;;;;;;;;;;8.80;99.90;;;;;;5135337;27;20101;-68
2021/12/14 10:28:47;;;;;;;64.57;47.78;;;8.80;99.90;;;;;;5116267;27;19967;-68
2021/12/14 10:31:28;;;;;;;67.72;48.47;;;8.80;99.90;;;;;;5157317;27;20047;-68
2021/12/14 10:33:55;;;;;;;68.95;48.35;;;8.90;99.90;;;;;;5130031;27;20047;-68
2021/12/14 10:36:31;;;;;;;61.40;46.25;;;8.90;99.90;;;;;;5125753;27;20106;-68
2021/12/14 10:39:19;;;;;;;66.13;47.97;;;8.90;99.90;;;;;;5123951;27;20035;-68
2021/12/14 10:44:37;;;;;;;60.38;46.33;;;8.90;99.90;;;;;;5117682;27;20052;-68
2021/12/14 10:47:05;;;;;;;65.78;49.05;;;8.90;99.90;;;;;;5136129;27;20038;-68
2021/12/14 10:49:31;;;;;;;67.65;49.50;;;8.90;99.90;;;;;;5128586;27;20606;-68
2021/12/14 10:52:04;;;;;;;65.05;48.47;;;8.80;99.90;;;;;;5128557;27;20039;-68
2021/12/14 10:54:30;;;;;;;66.72;49.90;;;8.90;99.90;;;;;;5130640;27;20048;-69
2021/12/14 10:56:59;;;;;;;67.40;50.08;;;8.90;99.90;;;;;;5131135;27;20064;-68
2021/12/14 10:59:29;;;;;;;65.13;47.95;;;8.80;99.90;;;;;;5117864;27;20697;-69
2021/12/14 11:01:56;;;;;;;63.47;46.40;;;8.90;99.90;;;;;;5118738;27;20060;-70
2021/12/14 11:04:37;;;;;;;64.55;48.47;;;8.90;99.90;;;;;;5121495;27;20191;-70
2021/12/14 11:07:07;;;;;;;62.72;46.63;;;8.80;99.90;;;;;;5111052;27;20035;-70
2021/12/14 11:09:43;;;;;;;64.07;48.05;;;8.90;99.90;;;;;;5120326;27;20051;-72
2021/12/14 11:12:20;;;;;;;64.28;46.92;;;8.90;99.90;;;;;;5121636;27;20050;-71
2021/12/14 11:14:53;;;;;;;64.53;45.85;;;8.90;99.90;;;;;;5122343;27;20148;-70
2021/12/14 11:20:10;;;;;;;64.10;46.45;;;8.90;99.90;;;;;;5125762;27;20035;-73
2021/12/14 11:22:42;;;;;;;67.63;47.78;;;8.90;99.90;;;;;;5126725;27;20050;-71
2021/12/14 11:25:12;;;;;;;69.18;49.67;;;8.90;99.90;;;;;;5125009;27;20100;-72
2021/12/14 11:27:42;;;;;;;65.22;47.30;;;8.90;99.90;;;;;;5121007;27;20048;-71
2021/12/14 11:30:22;;;;;;;71.40;48.75;;;9.00;99.90;;;;;;5115265;27;20095;-72
2021/12/14 11:33:29;;;;;;;68.25;48.10;;;8.90;99.90;;;;;;5127214;27;20513;-71
2021/12/14 11:36:02;;;;;;;69.68;49.25;;;9.00;99.90;;;;;;5113248;27;20057;-72
2021/12/14 11:38:40;;;;;;;67.88;48.40;;;9.00;99.90;;;;;;5150332;27;20055;-74
2021/12/14 11:41:38;;;;;;;75.65;49.58;;;9.00;99.90;;;;;;5128716;27;20130;-73
2021/12/14 11:44:19;;;;;;;74.28;48.63;;;9.00;99.90;;;;;;5121485;27;20088;-73
2021/12/14 11:49:52;;;;;;;74.85;49.03;;;9.00;99.90;;;;;;5137794;27;20134;-72
2021/12/14 11:52:35;;;;;;;79.20;50.05;;;9.00;99.90;;;;;;5115882;27;20125;-72
2021/12/14 11:55:24;;;;;;;78.28;50.47;;;9.00;99.90;;;;;;5150054;27;20586;-73
2021/12/14 11:58:05;;;;;;;82.03;52.25;;;9.00;99.90;;;;;;5105524;28;20047;-72
2021/12/14 12:00:33;;;;;;;83.97;51.83;;;9.00;99.90;;;;;;5106773;28;20043;-70
2021/12/14 12:03:40;;;;;;;83.65;51.92;;;9.00;99.90;;;;;;5107271;27;20231;-72
2021/12/14 12:06:13;;;;;;;91.03;51.58;;;9.00;99.90;;;;;;5111081;27;20079;-76
2021/12/14 12:11:38;;;;;;;91.40;52.13;;;9.00;99.90;;;;;;5116017;27;20394;-73
2021/12/14 12:14:27;;;;;;;84.82;51.08;;;9.00;99.90;;;;;;5123092;27;20043;-74
2021/12/14 12:16:58;;;;;;;86.90;51.45;;;9.00;99.90;;;;;;5106536;28;20054;-75
2021/12/14 12:19:28;;;;;;;87.10;53.08;;;9.00;99.90;;;;;;5111016;27;20047;-76
2021/12/14 12:21:55;;;;;;;96.78;54.72;;;9.00;99.90;;;;;;5124422;27;20760;-77
2021/12/14 12:24:38;;;;;;;82.85;53.97;;;9.00;99.90;;;;;;5121335;27;20494;-73
2021/12/14 12:27:29;;;;;;;100.35;55.35;;;9.00;99.90;;;;;;5124912;27;20053;-73
2021/12/14 12:30:15;;;;;;;84.65;52.10;;;9.00;99.90;;;;;;5124774;27;20043;-73
2021/12/14 12:32:42;;;;;;;81.72;51.78;;;9.00;99.90;;;;;;5126053;27;20047;-71
2021/12/14 12:35:29;;;;;;;85.07;52.35;;;9.00;99.90;;;;;;5114949;27;20046;-74
2021/12/14 12:37:57;;;;;;;94.25;52.00;;;9.00;99.90;;;;;;5113541;27;20066;-73
2021/12/14 12:40:47;;;;;;;89.30;51.38;;;9.00;99.90;;;;;;5114127;27;20051;-73
2021/12/14 12:43:31;;;;;;;90.97;51.63;;;9.00;99.90;;;;;;5111823;28;20127;-73
2021/12/14 12:46:04;;;;;;;84.13;51.33;;;9.00;99.90;;;;;;5112878;27;20073;-74
2021/12/14 12:48:44;;;;;;;84.00;50.13;;;9.00;99.90;;;;;;5116507;27;20043;-75
2021/12/14 12:51:12;;;;;;;79.55;49.30;;;9.00;99.90;;;;;;5112182;27;20127;-76
2021/12/14 12:53:38;;;;;;;81.28;48.40;;;9.00;99.90;;;;;;5118499;27;20047;-76
2021/12/14 12:56:14;;;;;;;78.20;47.70;;;9.00;99.90;;;;;;5113242;28;20043;-76
2021/12/14 12:58:49;;;;;;;75.93;45.75;;;9.00;99.90;;;;;;5117808;27;20515;-75
2021/12/14 13:01:17;;;;;;;73.00;47.53;;;9.00;99.90;;;;;;5126604;27;20057;-76
2021/12/14 13:03:43;;;;;;;73.00;45.75;;;9.00;99.90;;;;;;5117746;27;20119;-71
2021/12/14 13:06:19;;;;;;;76.13;46.47;;;9.00;99.90;;;;;;5121082;27;20118;-70
2021/12/14 13:08:51;;;;;;;79.78;44.95;;;9.10;99.90;;;;;;5128093;27;20047;-69
2021/12/14 13:11:24;;;;;;;74.72;44.80;;;9.10;99.90;;;;;;5111883;28;20043;-69
2021/12/14 13:13:56;;;;;;;72.43;43.05;;;9.10;99.90;;;;;;5112725;27;20048;-70
2021/12/14 13:16:29;;;;;;;70.47;42.78;;;9.10;99.90;;;;;;5114557;27;20043;-71
2021/12/14 13:19:17;;;;;;;74.18;43.30;;;9.10;99.90;;;;;;5116256;27;20110;-69
2021/12/14 13:21:53;;;;;;;70.47;42.22;;;9.10;99.90;;;;;;5131614;27;20057;-70
2021/12/14 13:24:25;;;;;;;67.82;42.38;;;9.10;99.90;;;;;;5127707;27;20031;-69
2021/12/14 13:27:02;;;;;;;68.78;39.75;;;9.10;99.90;;;;;;5129007;27;20472;-72
2021/12/14 13:29:39;;;;;;;66.68;39.97;;;9.10;99.90;;;;;;5129635;27;20099;-72
2021/12/14 13:32:21;;;;;;;67.28;39.88;;;9.10;99.90;;;;;;5161963;27;20055;-72
2021/12/14 13:34:50;;;;;;;60.72;39.42;;;9.10;99.90;;;;;;5126687;27;20440;-72
2021/12/14 13:37:26;;;;;;;59.92;38.33;;;9.00;99.90;;;;;;5130190;27;20127;-73
2021/12/14 13:39:53;;;;;;;60.80;37.38;;;9.10;99.90;;;;;;5130463;27;20065;-72
2021/12/14 13:42:34;;;;;;;57.90;37.03;;;9.10;99.90;;;;;;5111604;27;20038;-71
2021/12/14 13:45:00;;;;;;;54.08;35.70;;;9.10;99.90;;;;;;5134037;27;20059;-69
2021/12/14 13:47:28;;;;;;;55.73;36.37;;;9.10;99.90;;;;;;5111448;28;20147;-70
2021/12/14 13:49:57;;;;;;;55.92;35.83;;;9.10;99.90;;;;;;5117597;27;20035;-70
2021/12/14 13:52:24;;;;;;;56.17;35.45;;;9.10;99.90;;;;;;5110060;27;20047;-72
2021/12/14 13:55:16;;;;;;;55.42;35.33;;;9.10;99.90;;;;;;5113455;27;20050;-71